sensor_id;sensor_type;location;lat;lon;timestamp;temperature;humidity
1602;DHT22;794;48.592;9.634;2023-04-03T00:00:33;5.70;1.00
1602;DHT22;794;48.592;9.634;2023-04-03T00:02:59;5.00;1.00
1602;DHT22;794;48.592;9.634;2023-04-03T00:05:26;4.60;1.00
1602;DHT22;794;48.592;9.634;2023-04-03T00:07:53;5.00;1.00
1602;DHT22;794;48.592;9.634;2023-04-03T00:10:22;6.10;1.00
1602;DHT22;794;48.592;9.634;2023-04-03T00:12:49;3.90;1.00
1602;DHT22;794;48.592;9.634;2023-04-03T00:15:16;4.00;1.00
1602;DHT22;794;48.592;9.634;2023-04-03T00:17:43;4.70;1.00
1602;DHT22;794;48.592;9.634;2023-04-03T00:20:11;4.20;1.00
1602;DHT22;794;48.592;9.634;2023-04-03T00:22:38;4.10;1.00
1602;DHT22;794;48.592;9.634;2023-04-03T00:25:06;3.90;1.00
1602;DHT22;794;48.592;9.634;2023-04-03T00:27:36;3.10;1.00
1602;DHT22;794;48.592;9.634;2023-04-03T00:30:03;4.00;1.00
1602;DHT22;794;48.592;9.634;2023-04-03T00:32:30;3.20;1.00
1602;DHT22;794;48.592;9.634;2023-04-03T00:34:57;4.10;1.00
1602;DHT22;794;48.592;9.634;2023-04-03T00:37:24;6.30;1.00
1602;DHT22;794;48.592;9.634;2023-04-03T00:39:51;2.90;1.00
1602;DHT22;794;48.592;9.634;2023-04-03T00:42:18;3.20;1.00
1602;DHT22;794;48.592;9.634;2023-04-03T00:45:26;4.60;1.00
1602;DHT22;794;48.592;9.634;2023-04-03T00:47:54;3.30;1.00
1602;DHT22;794;48.592;9.634;2023-04-03T00:50:22;3.90;1.00
1602;DHT22;794;48.592;9.634;2023-04-03T00:52:49;4.80;1.00
1602;DHT22;794;48.592;9.634;2023-04-03T00:55:17;3.10;1.00
1602;DHT22;794;48.592;9.634;2023-04-03T00:57:45;5.40;1.00
1602;DHT22;794;48.592;9.634;2023-04-03T01:00:15;4.60;1.00
1602;DHT22;794;48.592;9.634;2023-04-03T01:02:44;3.30;1.00
1602;DHT22;794;48.592;9.634;2023-04-03T01:05:12;4.10;1.00
1602;DHT22;794;48.592;9.634;2023-04-03T01:07:40;3.50;1.00
1602;DHT22;794;48.592;9.634;2023-04-03T01:10:09;3.80;1.00
1602;DHT22;794;48.592;9.634;2023-04-03T01:12:38;3.40;1.00
1602;DHT22;794;48.592;9.634;2023-04-03T01:15:08;1.60;1.00
1602;DHT22;794;48.592;9.634;2023-04-03T01:17:37;3.40;1.00
1602;DHT22;794;48.592;9.634;2023-04-03T01:20:41;4.00;1.00
1602;DHT22;794;48.592;9.634;2023-04-03T01:23:20;3.10;1.00
1602;DHT22;794;48.592;9.634;2023-04-03T01:25:52;3.90;1.00
1602;DHT22;794;48.592;9.634;2023-04-03T01:28:22;3.40;1.00
1602;DHT22;794;48.592;9.634;2023-04-03T01:30:56;5.10;1.00
1602;DHT22;794;48.592;9.634;2023-04-03T01:33:27;4.20;1.00
1602;DHT22;794;48.592;9.634;2023-04-03T01:35:54;3.10;1.00
1602;DHT22;794;48.592;9.634;2023-04-03T01:38:21;3.30;1.00
1602;DHT22;794;48.592;9.634;2023-04-03T01:40:48;4.30;1.00
1602;DHT22;794;48.592;9.634;2023-04-03T01:43:15;4.40;1.00
1602;DHT22;794;48.592;9.634;2023-04-03T01:45:42;4.20;1.00
1602;DHT22;794;48.592;9.634;2023-04-03T01:48:09;4.70;1.00
1602;DHT22;794;48.592;9.634;2023-04-03T01:50:37;3.60;1.00
1602;DHT22;794;48.592;9.634;2023-04-03T01:53:04;3.80;1.00
1602;DHT22;794;48.592;9.634;2023-04-03T01:55:31;5.00;1.00
1602;DHT22;794;48.592;9.634;2023-04-03T01:57:58;3.60;1.00
1602;DHT22;794;48.592;9.634;2023-04-03T02:00:25;3.50;1.00
1602;DHT22;794;48.592;9.634;2023-04-03T02:02:53;3.20;1.00
1602;DHT22;794;48.592;9.634;2023-04-03T02:05:20;4.90;1.00
1602;DHT22;794;48.592;9.634;2023-04-03T02:07:48;4.70;1.00
1602;DHT22;794;48.592;9.634;2023-04-03T02:10:15;3.20;1.00
1602;DHT22;794;48.592;9.634;2023-04-03T02:12:42;3.20;1.00
1602;DHT22;794;48.592;9.634;2023-04-03T02:15:09;3.60;1.00
1602;DHT22;794;48.592;9.634;2023-04-03T02:17:36;3.10;1.00
1602;DHT22;794;48.592;9.634;2023-04-03T02:20:04;4.20;1.00
1602;DHT22;794;48.592;9.634;2023-04-03T02:22:31;3.00;1.00
1602;DHT22;794;48.592;9.634;2023-04-03T02:25:00;2.80;1.00
1602;DHT22;794;48.592;9.634;2023-04-03T02:27:27;2.80;1.00
1602;DHT22;794;48.592;9.634;2023-04-03T02:29:54;5.50;1.00
1602;DHT22;794;48.592;9.634;2023-04-03T02:32:21;3.50;1.00
1602;DHT22;794;48.592;9.634;2023-04-03T02:34:48;3.70;1.00
1602;DHT22;794;48.592;9.634;2023-04-03T02:37:15;5.00;1.00
1602;DHT22;794;48.592;9.634;2023-04-03T02:39:42;2.80;1.00
1602;DHT22;794;48.592;9.634;2023-04-03T02:42:10;2.90;1.00
1602;DHT22;794;48.592;9.634;2023-04-03T02:44:37;2.90;1.00
1602;DHT22;794;48.592;9.634;2023-04-03T02:47:04;4.40;1.00
1602;DHT22;794;48.592;9.634;2023-04-03T02:49:31;3.40;1.00
1602;DHT22;794;48.592;9.634;2023-04-03T02:51:58;4.00;1.00
1602;DHT22;794;48.592;9.634;2023-04-03T02:54:25;4.30;1.00
1602;DHT22;794;48.592;9.634;2023-04-03T02:56:54;4.70;1.00
1602;DHT22;794;48.592;9.634;2023-04-03T02:59:22;3.70;1.00
1602;DHT22;794;48.592;9.634;2023-04-03T03:01:49;3.30;1.00
1602;DHT22;794;48.592;9.634;2023-04-03T03:04:16;4.70;1.00
1602;DHT22;794;48.592;9.634;2023-04-03T03:06:43;3.80;1.00
1602;DHT22;794;48.592;9.634;2023-04-03T03:09:10;4.70;1.00
1602;DHT22;794;48.592;9.634;2023-04-03T03:11:38;4.10;1.00
1602;DHT22;794;48.592;9.634;2023-04-03T03:14:06;3.10;1.00
1602;DHT22;794;48.592;9.634;2023-04-03T03:16:34;3.10;1.00
1602;DHT22;794;48.592;9.634;2023-04-03T03:19:01;4.80;1.00
1602;DHT22;794;48.592;9.634;2023-04-03T03:21:28;4.30;1.00
1602;DHT22;794;48.592;9.634;2023-04-03T03:23:55;4.80;1.00
1602;DHT22;794;48.592;9.634;2023-04-03T03:26:22;2.60;1.00
1602;DHT22;794;48.592;9.634;2023-04-03T03:28:49;2.40;1.00
1602;DHT22;794;48.592;9.634;2023-04-03T03:31:16;4.00;1.00
1602;DHT22;794;48.592;9.634;2023-04-03T03:33:44;5.10;1.00
1602;DHT22;794;48.592;9.634;2023-04-03T03:36:11;4.30;1.00
1602;DHT22;794;48.592;9.634;2023-04-03T03:38:38;3.90;1.00
1602;DHT22;794;48.592;9.634;2023-04-03T03:41:05;5.20;1.00
1602;DHT22;794;48.592;9.634;2023-04-03T03:43:32;4.00;1.00
1602;DHT22;794;48.592;9.634;2023-04-03T03:45:59;4.30;1.00
1602;DHT22;794;48.592;9.634;2023-04-03T03:48:26;3.30;1.00
1602;DHT22;794;48.592;9.634;2023-04-03T03:50:54;4.10;1.00
1602;DHT22;794;48.592;9.634;2023-04-03T03:53:21;3.90;1.00
1602;DHT22;794;48.592;9.634;2023-04-03T03:55:48;3.40;1.00
1602;DHT22;794;48.592;9.634;2023-04-03T03:58:15;3.30;1.00
1602;DHT22;794;48.592;9.634;2023-04-03T04:00:42;3.20;1.00
1602;DHT22;794;48.592;9.634;2023-04-03T04:03:09;4.10;1.00
1602;DHT22;794;48.592;9.634;2023-04-03T04:05:36;4.00;1.00
1602;DHT22;794;48.592;9.634;2023-04-03T04:08:05;4.40;1.00
1602;DHT22;794;48.592;9.634;2023-04-03T04:10:32;2.70;1.00
1602;DHT22;794;48.592;9.634;2023-04-03T04:12:59;2.50;1.00
1602;DHT22;794;48.592;9.634;2023-04-03T04:15:26;2.40;1.00
1602;DHT22;794;48.592;9.634;2023-04-03T04:17:53;4.80;1.00
1602;DHT22;794;48.592;9.634;2023-04-03T04:20:20;3.80;1.00
1602;DHT22;794;48.592;9.634;2023-04-03T04:22:47;2.90;1.00
1602;DHT22;794;48.592;9.634;2023-04-03T04:25:18;4.40;1.00
1602;DHT22;794;48.592;9.634;2023-04-03T04:27:58;4.90;1.00
1602;DHT22;794;48.592;9.634;2023-04-03T04:30:28;4.00;1.00
1602;DHT22;794;48.592;9.634;2023-04-03T04:32:54;4.20;1.00
1602;DHT22;794;48.592;9.634;2023-04-03T04:35:21;3.40;1.00
1602;DHT22;794;48.592;9.634;2023-04-03T04:37:48;5.10;1.00
1602;DHT22;794;48.592;9.634;2023-04-03T04:40:15;3.60;1.00
1602;DHT22;794;48.592;9.634;2023-04-03T04:42:44;2.80;1.00
1602;DHT22;794;48.592;9.634;2023-04-03T04:45:11;4.80;1.00
1602;DHT22;794;48.592;9.634;2023-04-03T04:47:38;3.30;1.00
1602;DHT22;794;48.592;9.634;2023-04-03T04:50:05;5.00;1.00
1602;DHT22;794;48.592;9.634;2023-04-03T04:52:34;2.60;1.00
1602;DHT22;794;48.592;9.634;2023-04-03T04:55:01;3.80;1.00
1602;DHT22;794;48.592;9.634;2023-04-03T04:57:28;2.50;1.00
1602;DHT22;794;48.592;9.634;2023-04-03T04:59:56;2.70;1.00
1602;DHT22;794;48.592;9.634;2023-04-03T05:02:24;4.80;1.00
1602;DHT22;794;48.592;9.634;2023-04-03T05:04:51;2.60;1.00
1602;DHT22;794;48.592;9.634;2023-04-03T05:07:20;2.50;1.00
1602;DHT22;794;48.592;9.634;2023-04-03T05:09:47;4.30;1.00
1602;DHT22;794;48.592;9.634;2023-04-03T05:12:14;2.70;1.00
1602;DHT22;794;48.592;9.634;2023-04-03T05:14:41;4.70;1.00
1602;DHT22;794;48.592;9.634;2023-04-03T05:17:09;3.60;1.00
1602;DHT22;794;48.592;9.634;2023-04-03T05:19:36;4.10;1.00
1602;DHT22;794;48.592;9.634;2023-04-03T05:22:03;2.90;1.00
1602;DHT22;794;48.592;9.634;2023-04-03T05:24:30;2.80;1.00
1602;DHT22;794;48.592;9.634;2023-04-03T05:26:57;4.90;1.00
1602;DHT22;794;48.592;9.634;2023-04-03T05:29:24;3.00;1.00
1602;DHT22;794;48.592;9.634;2023-04-03T05:31:51;5.10;1.00
1602;DHT22;794;48.592;9.634;2023-04-03T05:34:19;4.40;1.00
1602;DHT22;794;48.592;9.634;2023-04-03T05:36:46;1.30;1.00
1602;DHT22;794;48.592;9.634;2023-04-03T05:39:14;4.90;1.00
1602;DHT22;794;48.592;9.634;2023-04-03T05:41:41;3.60;1.00
1602;DHT22;794;48.592;9.634;2023-04-03T05:44:07;2.90;1.00
1602;DHT22;794;48.592;9.634;2023-04-03T05:46:34;2.90;1.00
1602;DHT22;794;48.592;9.634;2023-04-03T05:49:02;4.90;1.00
1602;DHT22;794;48.592;9.634;2023-04-03T05:51:32;3.00;1.00
1602;DHT22;794;48.592;9.634;2023-04-03T05:54:06;4.50;1.00
1602;DHT22;794;48.592;9.634;2023-04-03T05:56:33;5.60;1.00
1602;DHT22;794;48.592;9.634;2023-04-03T05:59:00;4.20;1.00
1602;DHT22;794;48.592;9.634;2023-04-03T06:01:27;4.00;1.00
1602;DHT22;794;48.592;9.634;2023-04-03T06:03:54;2.30;1.00
1602;DHT22;794;48.592;9.634;2023-04-03T06:06:24;3.10;1.00
1602;DHT22;794;48.592;9.634;2023-04-03T06:08:52;3.30;1.00
1602;DHT22;794;48.592;9.634;2023-04-03T06:11:19;4.00;1.00
1602;DHT22;794;48.592;9.634;2023-04-03T06:13:47;3.40;1.00
1602;DHT22;794;48.592;9.634;2023-04-03T06:16:19;2.90;1.00
1602;DHT22;794;48.592;9.634;2023-04-03T06:18:46;3.40;1.00
1602;DHT22;794;48.592;9.634;2023-04-03T06:21:13;3.20;1.00
1602;DHT22;794;48.592;9.634;2023-04-03T06:23:40;3.20;1.00
1602;DHT22;794;48.592;9.634;2023-04-03T06:26:08;3.20;1.00
1602;DHT22;794;48.592;9.634;2023-04-03T06:28:35;4.20;1.00
1602;DHT22;794;48.592;9.634;2023-04-03T06:31:03;4.00;1.00
1602;DHT22;794;48.592;9.634;2023-04-03T06:33:29;1.90;1.00
1602;DHT22;794;48.592;9.634;2023-04-03T06:35:57;3.10;1.00
1602;DHT22;794;48.592;9.634;2023-04-03T06:38:24;3.30;1.00
1602;DHT22;794;48.592;9.634;2023-04-03T06:40:51;3.40;1.00
1602;DHT22;794;48.592;9.634;2023-04-03T06:43:20;5.30;1.00
1602;DHT22;794;48.592;9.634;2023-04-03T06:45:47;3.40;1.00
1602;DHT22;794;48.592;9.634;2023-04-03T06:48:14;3.80;1.00
1602;DHT22;794;48.592;9.634;2023-04-03T06:50:41;4.10;1.00
1602;DHT22;794;48.592;9.634;2023-04-03T06:53:08;4.50;1.00
1602;DHT22;794;48.592;9.634;2023-04-03T06:55:35;3.70;1.00
1602;DHT22;794;48.592;9.634;2023-04-03T06:58:02;3.70;1.00
1602;DHT22;794;48.592;9.634;2023-04-03T07:00:31;3.90;1.00
1602;DHT22;794;48.592;9.634;2023-04-03T07:02:58;6.00;1.00
1602;DHT22;794;48.592;9.634;2023-04-03T07:05:25;3.60;1.00
1602;DHT22;794;48.592;9.634;2023-04-03T07:07:52;3.80;1.00
1602;DHT22;794;48.592;9.634;2023-04-03T07:10:19;3.60;1.00
1602;DHT22;794;48.592;9.634;2023-04-03T07:12:46;4.00;1.00
1602;DHT22;794;48.592;9.634;2023-04-03T07:15:13;4.30;1.00
1602;DHT22;794;48.592;9.634;2023-04-03T07:17:42;4.30;1.00
1602;DHT22;794;48.592;9.634;2023-04-03T07:20:10;4.20;1.00
1602;DHT22;794;48.592;9.634;2023-04-03T07:22:37;4.20;1.00
1602;DHT22;794;48.592;9.634;2023-04-03T07:25:05;4.10;1.00
1602;DHT22;794;48.592;9.634;2023-04-03T07:27:33;3.90;1.00
1602;DHT22;794;48.592;9.634;2023-04-03T07:30:00;4.80;1.00
1602;DHT22;794;48.592;9.634;2023-04-03T07:32:27;5.30;1.00
1602;DHT22;794;48.592;9.634;2023-04-03T07:34:56;3.90;1.00
1602;DHT22;794;48.592;9.634;2023-04-03T07:37:23;4.40;1.00
1602;DHT22;794;48.592;9.634;2023-04-03T07:39:50;4.80;1.00
1602;DHT22;794;48.592;9.634;2023-04-03T07:42:17;5.20;1.00
1602;DHT22;794;48.592;9.634;2023-04-03T07:44:44;5.60;1.00
1602;DHT22;794;48.592;9.634;2023-04-03T07:47:11;5.10;1.00
1602;DHT22;794;48.592;9.634;2023-04-03T07:49:39;5.30;1.00
1602;DHT22;794;48.592;9.634;2023-04-03T07:52:08;5.50;1.00
1602;DHT22;794;48.592;9.634;2023-04-03T07:54:35;5.80;1.00
1602;DHT22;794;48.592;9.634;2023-04-03T07:57:02;6.00;1.00
1602;DHT22;794;48.592;9.634;2023-04-03T07:59:30;6.10;1.00
1602;DHT22;794;48.592;9.634;2023-04-03T08:01:57;6.10;1.00
1602;DHT22;794;48.592;9.634;2023-04-03T08:04:24;5.90;1.00
1602;DHT22;794;48.592;9.634;2023-04-03T08:06:51;5.20;1.00
1602;DHT22;794;48.592;9.634;2023-04-03T08:09:20;5.40;1.00
1602;DHT22;794;48.592;9.634;2023-04-03T08:11:47;7.20;1.00
1602;DHT22;794;48.592;9.634;2023-04-03T08:14:14;5.40;1.00
1602;DHT22;794;48.592;9.634;2023-04-03T08:16:44;6.10;1.00
1602;DHT22;794;48.592;9.634;2023-04-03T08:19:11;6.20;1.00
1602;DHT22;794;48.592;9.634;2023-04-03T08:21:40;6.10;1.00
1602;DHT22;794;48.592;9.634;2023-04-03T08:24:08;5.90;1.00
1602;DHT22;794;48.592;9.634;2023-04-03T08:26:36;6.30;1.00
1602;DHT22;794;48.592;9.634;2023-04-03T08:29:03;6.20;1.00
1602;DHT22;794;48.592;9.634;2023-04-03T08:31:30;6.30;1.00
1602;DHT22;794;48.592;9.634;2023-04-03T08:33:58;6.30;1.00
1602;DHT22;794;48.592;9.634;2023-04-03T08:36:26;6.50;1.00
1602;DHT22;794;48.592;9.634;2023-04-03T08:38:54;6.20;1.00
1602;DHT22;794;48.592;9.634;2023-04-03T08:41:29;5.80;1.00
1602;DHT22;794;48.592;9.634;2023-04-03T08:44:03;7.40;1.00
1602;DHT22;794;48.592;9.634;2023-04-03T08:46:44;6.20;1.00
1602;DHT22;794;48.592;9.634;2023-04-03T08:49:21;6.00;1.00
1602;DHT22;794;48.592;9.634;2023-04-03T08:51:50;6.40;1.00
1602;DHT22;794;48.592;9.634;2023-04-03T08:54:27;6.20;1.00
1602;DHT22;794;48.592;9.634;2023-04-03T08:56:56;5.60;1.00
1602;DHT22;794;48.592;9.634;2023-04-03T08:59:28;5.60;1.00
1602;DHT22;794;48.592;9.634;2023-04-03T09:01:58;5.20;1.00
1602;DHT22;794;48.592;9.634;2023-04-03T09:04:28;5.50;1.00
1602;DHT22;794;48.592;9.634;2023-04-03T09:07:03;5.70;1.00
1602;DHT22;794;48.592;9.634;2023-04-03T09:09:33;5.80;1.00
1602;DHT22;794;48.592;9.634;2023-04-03T09:12:11;6.10;1.00
1602;DHT22;794;48.592;9.634;2023-04-03T09:14:49;5.60;1.00
1602;DHT22;794;48.592;9.634;2023-04-03T09:17:25;7.30;1.00
1602;DHT22;794;48.592;9.634;2023-04-03T09:20:00;5.70;1.00
1602;DHT22;794;48.592;9.634;2023-04-03T09:22:32;5.30;1.00
1602;DHT22;794;48.592;9.634;2023-04-03T09:25:02;5.40;1.00
1602;DHT22;794;48.592;9.634;2023-04-03T09:27:31;5.90;1.00
1602;DHT22;794;48.592;9.634;2023-04-03T09:29:59;5.60;1.00
1602;DHT22;794;48.592;9.634;2023-04-03T09:32:27;5.00;1.00
1602;DHT22;794;48.592;9.634;2023-04-03T09:35:01;5.60;1.00
1602;DHT22;794;48.592;9.634;2023-04-03T09:37:40;5.60;1.00
1602;DHT22;794;48.592;9.634;2023-04-03T09:40:30;5.40;1.00
1602;DHT22;794;48.592;9.634;2023-04-03T09:43:01;4.40;1.00
1602;DHT22;794;48.592;9.634;2023-04-03T09:45:31;5.60;1.00
1602;DHT22;794;48.592;9.634;2023-04-03T09:48:07;5.60;1.00
1602;DHT22;794;48.592;9.634;2023-04-03T09:50:35;5.80;1.00
1602;DHT22;794;48.592;9.634;2023-04-03T09:53:06;5.60;1.00
1602;DHT22;794;48.592;9.634;2023-04-03T09:55:42;6.60;1.00
1602;DHT22;794;48.592;9.634;2023-04-03T09:58:24;5.40;1.00
1602;DHT22;794;48.592;9.634;2023-04-03T10:00:59;5.90;1.00
1602;DHT22;794;48.592;9.634;2023-04-03T10:03:30;5.40;1.00
1602;DHT22;794;48.592;9.634;2023-04-03T10:05:58;5.00;1.00
1602;DHT22;794;48.592;9.634;2023-04-03T10:08:27;6.60;1.00
1602;DHT22;794;48.592;9.634;2023-04-03T10:11:14;5.40;1.00
1602;DHT22;794;48.592;9.634;2023-04-03T10:13:53;5.10;1.00
1602;DHT22;794;48.592;9.634;2023-04-03T10:16:29;4.80;1.00
1602;DHT22;794;48.592;9.634;2023-04-03T10:19:21;5.10;1.00
1602;DHT22;794;48.592;9.634;2023-04-03T10:21:57;5.00;1.00
1602;DHT22;794;48.592;9.634;2023-04-03T10:24:30;4.90;1.00
1602;DHT22;794;48.592;9.634;2023-04-03T10:27:05;5.60;1.00
1602;DHT22;794;48.592;9.634;2023-04-03T10:29:40;5.50;1.00
1602;DHT22;794;48.592;9.634;2023-04-03T10:32:24;5.70;1.00
1602;DHT22;794;48.592;9.634;2023-04-03T10:34:57;5.00;1.00
1602;DHT22;794;48.592;9.634;2023-04-03T10:37:29;5.40;1.00
1602;DHT22;794;48.592;9.634;2023-04-03T10:40:05;5.30;1.00
1602;DHT22;794;48.592;9.634;2023-04-03T10:42:43;5.50;1.00
1602;DHT22;794;48.592;9.634;2023-04-03T10:45:21;7.40;1.00
1602;DHT22;794;48.592;9.634;2023-04-03T10:47:58;5.60;1.00
1602;DHT22;794;48.592;9.634;2023-04-03T10:50:44;5.70;1.00
1602;DHT22;794;48.592;9.634;2023-04-03T10:53:20;5.70;1.00
1602;DHT22;794;48.592;9.634;2023-04-03T10:55:56;6.10;1.00
1602;DHT22;794;48.592;9.634;2023-04-03T10:58:29;6.00;1.00
1602;DHT22;794;48.592;9.634;2023-04-03T11:01:01;5.90;1.00
1602;DHT22;794;48.592;9.634;2023-04-03T11:03:34;5.80;1.00
1602;DHT22;794;48.592;9.634;2023-04-03T11:06:05;6.00;1.00
1602;DHT22;794;48.592;9.634;2023-04-03T11:08:36;5.50;1.00
1602;DHT22;794;48.592;9.634;2023-04-03T11:11:08;5.80;1.00
1602;DHT22;794;48.592;9.634;2023-04-03T11:13:40;6.00;1.00
1602;DHT22;794;48.592;9.634;2023-04-03T11:16:08;6.20;1.00
1602;DHT22;794;48.592;9.634;2023-04-03T11:18:41;6.70;1.00
1602;DHT22;794;48.592;9.634;2023-04-03T11:21:14;6.80;1.00
1602;DHT22;794;48.592;9.634;2023-04-03T11:23:45;5.90;1.00
1602;DHT22;794;48.592;9.634;2023-04-03T11:26:15;5.90;1.00
1602;DHT22;794;48.592;9.634;2023-04-03T11:28:43;5.90;1.00
1602;DHT22;794;48.592;9.634;2023-04-03T11:31:19;5.80;1.00
1602;DHT22;794;48.592;9.634;2023-04-03T11:33:58;5.90;1.00
1602;DHT22;794;48.592;9.634;2023-04-03T11:36:30;5.70;1.00
1602;DHT22;794;48.592;9.634;2023-04-03T11:39:01;5.50;1.00
1602;DHT22;794;48.592;9.634;2023-04-03T11:41:34;5.60;1.00
1602;DHT22;794;48.592;9.634;2023-04-03T11:44:02;5.50;1.00
1602;DHT22;794;48.592;9.634;2023-04-03T11:46:49;5.50;1.00
1602;DHT22;794;48.592;9.634;2023-04-03T11:53:00;5.30;1.00
1602;DHT22;794;48.592;9.634;2023-04-03T11:55:59;5.60;1.00
1602;DHT22;794;48.592;9.634;2023-04-03T11:58:28;5.60;1.00
1602;DHT22;794;48.592;9.634;2023-04-03T12:01:10;5.30;1.00
1602;DHT22;794;48.592;9.634;2023-04-03T12:04:09;5.00;1.00
1602;DHT22;794;48.592;9.634;2023-04-03T12:06:58;4.80;1.00
1602;DHT22;794;48.592;9.634;2023-04-03T12:12:38;5.30;1.00
1602;DHT22;794;48.592;9.634;2023-04-03T12:19:00;5.40;1.00
1602;DHT22;794;48.592;9.634;2023-04-03T12:22:06;5.20;1.00
1602;DHT22;794;48.592;9.634;2023-04-03T12:24:34;5.00;1.00
1602;DHT22;794;48.592;9.634;2023-04-03T12:27:05;4.70;1.00
1602;DHT22;794;48.592;9.634;2023-04-03T12:29:42;5.10;1.00
1602;DHT22;794;48.592;9.634;2023-04-03T12:32:21;4.90;1.00
1602;DHT22;794;48.592;9.634;2023-04-03T12:35:01;4.70;1.00
1602;DHT22;794;48.592;9.634;2023-04-03T12:37:41;4.60;1.00
1602;DHT22;794;48.592;9.634;2023-04-03T12:40:16;4.50;1.00
1602;DHT22;794;48.592;9.634;2023-04-03T12:46:02;4.90;1.00
1602;DHT22;794;48.592;9.634;2023-04-03T12:48:32;5.10;1.00
1602;DHT22;794;48.592;9.634;2023-04-03T12:51:00;5.10;1.00
1602;DHT22;794;48.592;9.634;2023-04-03T12:53:32;5.30;1.00
1602;DHT22;794;48.592;9.634;2023-04-03T12:56:22;5.20;1.00
1602;DHT22;794;48.592;9.634;2023-04-03T12:58:50;5.20;1.00
1602;DHT22;794;48.592;9.634;2023-04-03T13:01:24;5.20;1.00
1602;DHT22;794;48.592;9.634;2023-04-03T13:03:55;5.90;1.00
1602;DHT22;794;48.592;9.634;2023-04-03T13:06:32;6.20;1.00
1602;DHT22;794;48.592;9.634;2023-04-03T13:09:02;6.10;1.00
1602;DHT22;794;48.592;9.634;2023-04-03T13:14:29;5.30;1.00
1602;DHT22;794;48.592;9.634;2023-04-03T13:16:59;5.00;1.00
1602;DHT22;794;48.592;9.634;2023-04-03T13:19:27;4.90;1.00
1602;DHT22;794;48.592;9.634;2023-04-03T13:22:01;4.70;1.00
1602;DHT22;794;48.592;9.634;2023-04-03T13:24:29;5.10;1.00
1602;DHT22;794;48.592;9.634;2023-04-03T13:27:01;5.40;1.00
1602;DHT22;794;48.592;9.634;2023-04-03T13:29:31;5.10;1.00
1602;DHT22;794;48.592;9.634;2023-04-03T13:32:01;6.00;1.00
1602;DHT22;794;48.592;9.634;2023-04-03T13:34:37;5.70;1.00
1602;DHT22;794;48.592;9.634;2023-04-03T13:37:05;5.50;1.00
1602;DHT22;794;48.592;9.634;2023-04-03T13:39:34;5.00;1.00
1602;DHT22;794;48.592;9.634;2023-04-03T13:42:16;5.40;1.00
1602;DHT22;794;48.592;9.634;2023-04-03T13:44:43;5.60;1.00
1602;DHT22;794;48.592;9.634;2023-04-03T13:47:20;5.60;1.00
1602;DHT22;794;48.592;9.634;2023-04-03T13:50:00;5.40;1.00
1602;DHT22;794;48.592;9.634;2023-04-03T13:52:31;5.50;1.00
1602;DHT22;794;48.592;9.634;2023-04-03T13:55:14;5.90;1.00
1602;DHT22;794;48.592;9.634;2023-04-03T13:57:53;5.40;1.00
1602;DHT22;794;48.592;9.634;2023-04-03T14:00:29;5.60;1.00
1602;DHT22;794;48.592;9.634;2023-04-03T14:02:58;5.80;1.00
1602;DHT22;794;48.592;9.634;2023-04-03T14:05:25;5.50;1.00
1602;DHT22;794;48.592;9.634;2023-04-03T14:07:53;5.40;1.00
1602;DHT22;794;48.592;9.634;2023-04-03T14:10:21;5.60;1.00
1602;DHT22;794;48.592;9.634;2023-04-03T14:12:48;5.60;1.00
1602;DHT22;794;48.592;9.634;2023-04-03T14:15:20;5.30;1.00
1602;DHT22;794;48.592;9.634;2023-04-03T14:17:52;5.30;1.00
1602;DHT22;794;48.592;9.634;2023-04-03T14:20:24;6.80;1.00
1602;DHT22;794;48.592;9.634;2023-04-03T14:22:53;5.50;1.00
1602;DHT22;794;48.592;9.634;2023-04-03T14:25:21;5.40;1.00
1602;DHT22;794;48.592;9.634;2023-04-03T14:27:50;5.20;1.00
1602;DHT22;794;48.592;9.634;2023-04-03T14:30:22;5.40;1.00
1602;DHT22;794;48.592;9.634;2023-04-03T14:32:49;5.70;1.00
1602;DHT22;794;48.592;9.634;2023-04-03T14:35:18;5.90;1.00
1602;DHT22;794;48.592;9.634;2023-04-03T14:37:47;6.20;1.00
1602;DHT22;794;48.592;9.634;2023-04-03T14:40:17;5.80;1.00
1602;DHT22;794;48.592;9.634;2023-04-03T14:42:45;6.40;1.00
1602;DHT22;794;48.592;9.634;2023-04-03T14:45:15;6.40;1.00
1602;DHT22;794;48.592;9.634;2023-04-03T14:47:45;6.40;1.00
1602;DHT22;794;48.592;9.634;2023-04-03T14:50:20;6.10;1.00
1602;DHT22;794;48.592;9.634;2023-04-03T14:52:58;5.90;1.00
1602;DHT22;794;48.592;9.634;2023-04-03T14:55:28;5.80;1.00
1602;DHT22;794;48.592;9.634;2023-04-03T14:58:02;5.90;1.00
1602;DHT22;794;48.592;9.634;2023-04-03T15:00:52;5.20;1.00
1602;DHT22;794;48.592;9.634;2023-04-03T15:03:38;5.70;1.00
1602;DHT22;794;48.592;9.634;2023-04-03T15:06:07;5.30;1.00
1602;DHT22;794;48.592;9.634;2023-04-03T15:08:39;5.10;1.00
1602;DHT22;794;48.592;9.634;2023-04-03T15:11:20;5.30;1.00
1602;DHT22;794;48.592;9.634;2023-04-03T15:13:49;7.30;1.00
1602;DHT22;794;48.592;9.634;2023-04-03T15:16:38;5.40;1.00
1602;DHT22;794;48.592;9.634;2023-04-03T15:19:21;5.20;1.00
1602;DHT22;794;48.592;9.634;2023-04-03T15:24:16;5.20;1.00
1602;DHT22;794;48.592;9.634;2023-04-03T15:26:43;6.70;1.00
1602;DHT22;794;48.592;9.634;2023-04-03T15:29:20;5.80;1.00
1602;DHT22;794;48.592;9.634;2023-04-03T15:31:48;5.70;1.00
1602;DHT22;794;48.592;9.634;2023-04-03T15:34:18;5.70;1.00
1602;DHT22;794;48.592;9.634;2023-04-03T15:36:46;4.40;1.00
1602;DHT22;794;48.592;9.634;2023-04-03T15:39:13;5.60;1.00
1602;DHT22;794;48.592;9.634;2023-04-03T15:41:44;5.50;1.00
1602;DHT22;794;48.592;9.634;2023-04-03T15:44:11;5.10;1.00
1602;DHT22;794;48.592;9.634;2023-04-03T15:47:03;6.00;1.00
1602;DHT22;794;48.592;9.634;2023-04-03T15:49:31;5.70;1.00
1602;DHT22;794;48.592;9.634;2023-04-03T15:52:07;6.40;1.00
1602;DHT22;794;48.592;9.634;2023-04-03T15:55:07;5.80;1.00
1602;DHT22;794;48.592;9.634;2023-04-03T15:57:39;6.00;1.00
1602;DHT22;794;48.592;9.634;2023-04-03T16:00:09;5.40;1.00
1602;DHT22;794;48.592;9.634;2023-04-03T16:02:46;5.10;1.00
1602;DHT22;794;48.592;9.634;2023-04-03T16:05:16;5.30;1.00
1602;DHT22;794;48.592;9.634;2023-04-03T16:07:45;5.70;1.00
1602;DHT22;794;48.592;9.634;2023-04-03T16:10:15;5.40;1.00
1602;DHT22;794;48.592;9.634;2023-04-03T16:12:44;6.90;1.00
1602;DHT22;794;48.592;9.634;2023-04-03T16:15:11;5.60;1.00
1602;DHT22;794;48.592;9.634;2023-04-03T16:17:40;5.60;1.00
1602;DHT22;794;48.592;9.634;2023-04-03T16:20:08;5.40;1.00
1602;DHT22;794;48.592;9.634;2023-04-03T16:22:37;5.50;1.00
1602;DHT22;794;48.592;9.634;2023-04-03T16:25:05;5.10;1.00
1602;DHT22;794;48.592;9.634;2023-04-03T16:27:33;5.60;1.00
1602;DHT22;794;48.592;9.634;2023-04-03T16:30:01;5.70;1.00
1602;DHT22;794;48.592;9.634;2023-04-03T16:32:31;5.20;1.00
1602;DHT22;794;48.592;9.634;2023-04-03T16:34:58;5.00;1.00
1602;DHT22;794;48.592;9.634;2023-04-03T16:37:26;4.70;1.00
1602;DHT22;794;48.592;9.634;2023-04-03T16:39:53;5.00;1.00
1602;DHT22;794;48.592;9.634;2023-04-03T16:42:20;4.70;1.00
1602;DHT22;794;48.592;9.634;2023-04-03T16:44:47;4.80;1.00
1602;DHT22;794;48.592;9.634;2023-04-03T16:47:16;4.60;1.00
1602;DHT22;794;48.592;9.634;2023-04-03T16:49:45;4.60;1.00
1602;DHT22;794;48.592;9.634;2023-04-03T16:52:13;4.60;1.00
1602;DHT22;794;48.592;9.634;2023-04-03T16:54:40;5.80;1.00
1602;DHT22;794;48.592;9.634;2023-04-03T16:57:07;4.50;1.00
1602;DHT22;794;48.592;9.634;2023-04-03T16:59:34;4.80;1.00
1602;DHT22;794;48.592;9.634;2023-04-03T17:02:01;5.00;1.00
1602;DHT22;794;48.592;9.634;2023-04-03T17:04:30;4.90;1.00
1602;DHT22;794;48.592;9.634;2023-04-03T17:06:58;4.90;1.00
1602;DHT22;794;48.592;9.634;2023-04-03T17:09:25;4.90;1.00
1602;DHT22;794;48.592;9.634;2023-04-03T17:11:52;5.60;1.00
1602;DHT22;794;48.592;9.634;2023-04-03T17:14:20;6.10;1.00
1602;DHT22;794;48.592;9.634;2023-04-03T17:16:47;5.20;1.00
1602;DHT22;794;48.592;9.634;2023-04-03T17:19:14;5.00;1.00
1602;DHT22;794;48.592;9.634;2023-04-03T17:21:44;5.00;1.00
1602;DHT22;794;48.592;9.634;2023-04-03T17:24:11;5.90;1.00
1602;DHT22;794;48.592;9.634;2023-04-03T17:26:40;4.90;1.00
1602;DHT22;794;48.592;9.634;2023-04-03T17:29:08;4.60;1.00
1602;DHT22;794;48.592;9.634;2023-04-03T17:31:35;5.10;1.00